createdAt,value
2023-11-13T00:01:23.284Z,100909.69
2023-11-13T00:03:52.072Z,100916.59
2023-11-13T00:06:20.535Z,100921.84
2023-11-13T00:08:49.282Z,100919.25
2023-11-13T00:11:17.821Z,100934.06
2023-11-13T00:13:46.619Z,100921.06
2023-11-13T00:16:15.227Z,100938.44
2023-11-13T00:18:44.462Z,100936.66
2023-11-13T00:21:17.690Z,100936.72
2023-11-13T00:23:46.647Z,100934.94
2023-11-13T00:26:15.087Z,100932.31
2023-11-13T00:28:53.057Z,100931.44
2023-11-13T00:31:23.140Z,100948.78
2023-11-13T00:33:51.961Z,100938.38
2023-11-13T00:36:20.668Z,100942.72
2023-11-13T00:38:49.339Z,100956.59
2023-11-13T00:41:21.424Z,100953.13
2023-11-13T00:43:50.139Z,100951.41
2023-11-13T00:46:19.367Z,100955.72
2023-11-13T00:48:48.066Z,100962.69
2023-11-13T00:51:16.792Z,100953.13
2023-11-13T00:53:45.250Z,100958.34
2023-11-13T00:56:13.822Z,100968.78
2023-11-13T00:58:42.329Z,100981.81
2023-11-13T01:01:12.790Z,100982.63
2023-11-13T01:03:41.927Z,100959.28
2023-11-13T01:06:15.780Z,100982.63
2023-11-13T01:08:44.750Z,100992.22
2023-11-13T01:11:14.117Z,100990.47
2023-11-13T01:13:46.037Z,100987.00
2023-11-13T01:16:14.708Z,101000.88
2023-11-13T01:18:43.712Z,100986.13
2023-11-13T01:21:12.307Z,100988.75
2023-11-13T01:23:40.932Z,101003.53
2023-11-13T01:26:09.617Z,101007.03
2023-11-13T01:28:38.330Z,101016.59
2023-11-13T01:31:06.833Z,101015.75
2023-11-13T01:33:35.559Z,100985.44
2023-11-13T01:36:04.468Z,101009.72
2023-11-13T01:38:35.469Z,101016.66
2023-11-13T01:41:04.369Z,101030.59
2023-11-13T01:43:33.865Z,101014.94
2023-11-13T01:46:04.159Z,101035.81
2023-11-13T01:48:32.713Z,101035.00
2023-11-13T01:51:01.884Z,101027.16
2023-11-13T01:53:30.607Z,101024.56
2023-11-13T01:56:00.266Z,101044.50
2023-11-13T01:58:28.896Z,101031.47
2023-11-13T02:00:57.650Z,101050.63
2023-11-13T02:03:27.771Z,101005.41
2023-11-13T02:05:57.757Z,101014.06
2023-11-13T02:08:26.282Z,101039.28
2023-11-13T02:10:55.695Z,101029.69
2023-11-13T02:13:24.336Z,101025.34
2023-11-13T02:15:52.964Z,101034.03
2023-11-13T02:18:21.536Z,101043.63
2023-11-13T02:20:50.216Z,101024.59
2023-11-13T02:23:19.352Z,101052.38
2023-11-13T02:25:53.525Z,101053.28
2023-11-13T02:28:22.267Z,101061.06
2023-11-13T02:30:50.988Z,101051.47
2023-11-13T02:33:19.602Z,101009.88
2023-11-13T02:35:48.929Z,101061.09
2023-11-13T02:38:17.457Z,101066.28
2023-11-13T02:40:46.273Z,101058.50
2023-11-13T02:43:14.737Z,101039.41
2023-11-13T02:45:43.436Z,101069.75
2023-11-13T02:48:12.279Z,101056.72
2023-11-13T02:50:42.055Z,101056.72
2023-11-13T02:53:10.673Z,101068.84
2023-11-13T02:55:39.450Z,101063.66
2023-11-13T02:58:07.965Z,101078.44
2023-11-13T03:00:36.774Z,101069.78
2023-11-13T03:03:05.696Z,101077.56
2023-11-13T03:05:34.855Z,101082.78
2023-11-13T03:08:04.196Z,101072.34
2023-11-13T03:10:33.035Z,101089.72
2023-11-13T03:13:02.174Z,101093.19
2023-11-13T03:15:30.765Z,101082.78
2023-11-13T03:17:59.754Z,101058.47
2023-11-13T03:20:28.313Z,101102.78
2023-11-13T03:22:56.863Z,101103.63
2023-11-13T03:25:25.638Z,101114.09
2023-11-13T03:27:54.397Z,101102.78
2023-11-13T03:30:23.345Z,101102.75
2023-11-13T03:32:51.892Z,101113.19
2023-11-13T03:35:23.090Z,101094.94
2023-11-13T03:37:51.539Z,101092.28
2023-11-13T03:40:20.400Z,101101.84
2023-11-13T03:42:49.357Z,101101.81
2023-11-13T03:45:18.155Z,101115.75
2023-11-13T03:47:46.764Z,101118.34
2023-11-13T03:50:15.395Z,101109.66
2023-11-13T03:52:44.100Z,101085.38
2023-11-13T03:55:12.707Z,101124.47
2023-11-13T03:57:41.881Z,101117.50
2023-11-13T04:00:11.114Z,101127.91
2023-11-13T04:02:42.162Z,101127.91
2023-11-13T04:05:11.045Z,101114.88
2023-11-13T04:07:41.930Z,101113.13
2023-11-13T04:10:19.670Z,101116.56
2023-11-13T04:12:48.805Z,101118.31
2023-11-13T04:15:17.398Z,101131.34
2023-11-13T04:17:45.938Z,101120.91
2023-11-13T04:20:14.668Z,101132.16
2023-11-13T04:22:43.490Z,101123.44
2023-11-13T04:25:13.809Z,101146.97
2023-11-13T04:27:43.134Z,101115.66
2023-11-13T04:30:11.909Z,101128.66
2023-11-13T04:32:40.799Z,101119.91
2023-11-13T04:35:09.503Z,101137.25
2023-11-13T04:37:38.091Z,101131.13
2023-11-13T04:40:07.557Z,101143.25
2023-11-13T04:42:36.131Z,101144.06
2023-11-13T04:45:06.307Z,101118.84
2023-11-13T04:47:35.007Z,101144.84
2023-11-13T04:50:06.072Z,101160.47
2023-11-13T04:52:34.932Z,101159.53
2023-11-13T04:55:03.560Z,101156.91
2023-11-13T04:57:32.207Z,101159.44
2023-11-13T05:00:00.870Z,101126.47
2023-11-13T05:02:30.046Z,101162.06
2023-11-13T05:04:58.760Z,101156.88
2023-11-13T05:07:27.704Z,101127.34
2023-11-13T05:09:56.276Z,101167.31
2023-11-13T05:12:24.966Z,101172.53
2023-11-13T05:14:53.604Z,101170.00
2023-11-13T05:17:22.111Z,101172.59
2023-11-13T05:19:51.402Z,101172.63
2023-11-13T05:22:20.188Z,101179.59
2023-11-13T05:24:48.983Z,101185.72
2023-11-13T05:27:18.137Z,101197.03
2023-11-13T05:29:46.612Z,101193.56
2023-11-13T05:32:15.642Z,101152.78
2023-11-13T05:34:44.973Z,101213.63
2023-11-13T05:37:14.357Z,101213.69
2023-11-13T05:39:43.313Z,101230.19
2023-11-13T05:42:12.129Z,101201.53
2023-11-13T05:44:40.779Z,101216.28
2023-11-13T05:47:10.029Z,101205.84
2023-11-13T05:49:38.683Z,101231.09
2023-11-13T05:52:07.574Z,101223.25
2023-11-13T05:54:36.074Z,101221.50
2023-11-13T05:57:04.858Z,101225.88
2023-11-13T05:59:33.409Z,101218.06
2023-11-13T06:02:02.454Z,101218.09
2023-11-13T06:04:31.764Z,101178.06
2023-11-13T06:07:02.167Z,101195.41
2023-11-13T06:09:30.931Z,101216.31
2023-11-13T06:11:59.535Z,101230.25
2023-11-13T06:14:28.341Z,101212.81
2023-11-13T06:17:00.433Z,101234.59
2023-11-13T06:19:30.492Z,101238.91
2023-11-13T06:21:59.597Z,101238.94
2023-11-13T06:24:28.439Z,101224.94
2023-11-13T06:26:57.036Z,101231.88
2023-11-13T06:29:27.541Z,101224.88
2023-11-13T06:31:56.480Z,101225.69
2023-11-13T06:34:25.294Z,101226.53
2023-11-13T06:36:56.384Z,101220.41
2023-11-13T06:39:25.428Z,101241.28
2023-11-13T06:41:54.565Z,101236.94
2023-11-13T06:44:23.124Z,101244.78
2023-11-13T06:46:52.142Z,101248.28
2023-11-13T06:49:21.593Z,101237.00
2023-11-13T06:51:51.164Z,101242.22
2023-11-13T06:54:22.082Z,101250.03
2023-11-13T06:56:50.865Z,101239.63
2023-11-13T06:59:19.894Z,101218.78
2023-11-13T07:01:49.904Z,101243.13
2023-11-13T07:04:18.589Z,101261.41
2023-11-13T07:06:47.450Z,101254.41
2023-11-13T07:09:16.643Z,101270.16
2023-11-13T07:11:47.044Z,101255.34
2023-11-13T07:14:19.981Z,101246.63
2023-11-13T07:16:48.746Z,101255.34
2023-11-13T07:19:20.133Z,101262.34
2023-11-13T07:21:48.585Z,101266.69
2023-11-13T07:24:17.391Z,101275.38
2023-11-13T07:26:46.873Z,101265.81
2023-11-13T07:29:16.634Z,101254.50
2023-11-13T07:31:45.280Z,101268.44
2023-11-13T07:34:13.967Z,101271.91
2023-11-13T07:36:42.719Z,101270.16
2023-11-13T07:39:11.876Z,101251.09
2023-11-13T07:41:40.593Z,101266.66
2023-11-13T07:44:13.186Z,101282.38
2023-11-13T07:46:41.928Z,101284.13
2023-11-13T07:49:11.633Z,101284.97
2023-11-13T07:51:40.326Z,101292.81
2023-11-13T07:54:08.915Z,101287.59
2023-11-13T07:56:37.849Z,101291.06
2023-11-13T07:59:13.581Z,101296.28
2023-11-13T08:01:42.641Z,101294.56
2023-11-13T08:04:11.952Z,101285.88
2023-11-13T08:06:40.711Z,101280.66
2023-11-13T08:09:17.086Z,101286.78
2023-11-13T08:11:47.236Z,101295.50
2023-11-13T08:14:16.212Z,101303.31
2023-11-13T08:16:44.983Z,101313.81
2023-11-13T08:19:14.097Z,101312.09
2023-11-13T08:21:45.171Z,101315.53
2023-11-13T08:24:14.080Z,101312.09
2023-11-13T08:26:42.738Z,101299.88
2023-11-13T08:29:11.625Z,101303.38
2023-11-13T08:31:40.425Z,101306.84
2023-11-13T08:34:09.301Z,101311.16
2023-11-13T08:36:38.017Z,101298.13
2023-11-13T08:39:07.091Z,101298.97
2023-11-13T08:41:36.834Z,101288.50
2023-11-13T08:44:06.081Z,101298.03
2023-11-13T08:46:35.843Z,101326.72
2023-11-13T08:49:06.817Z,101311.91
2023-11-13T08:51:35.996Z,101329.34
2023-11-13T08:54:06.873Z,101325.91
2023-11-13T08:56:35.525Z,101333.72
2023-11-13T08:59:04.546Z,101346.81
2023-11-13T09:01:33.300Z,101352.09
2023-11-13T09:04:02.779Z,101345.09
2023-11-13T09:06:36.785Z,101355.59
2023-11-13T09:09:13.986Z,101344.25
2023-11-13T09:11:43.137Z,101359.97
2023-11-13T09:14:11.916Z,101354.72
2023-11-13T09:16:41.198Z,101345.16
2023-11-13T09:19:10.073Z,101353.84
2023-11-13T09:21:39.440Z,101328.69
2023-11-13T09:24:11.514Z,101330.44
2023-11-13T09:26:40.338Z,101358.31
2023-11-13T09:29:12.193Z,101333.09
2023-11-13T09:31:41.503Z,101360.91
2023-11-13T09:34:11.651Z,101354.78
2023-11-13T09:36:42.053Z,101365.31
2023-11-13T09:39:13.173Z,101360.91
2023-11-13T09:41:52.836Z,101360.09
2023-11-13T09:44:23.880Z,101368.81
2023-11-13T09:46:59.267Z,101374.03
2023-11-13T09:49:32.896Z,101381.03
2023-11-13T09:52:04.102Z,101372.34
2023-11-13T09:54:34.615Z,101366.25
2023-11-13T09:57:10.944Z,101373.22
2023-11-13T09:59:40.420Z,101355.84
2023-11-13T10:02:12.738Z,101382.78
2023-11-13T10:04:42.890Z,101374.09
2023-11-13T10:07:14.042Z,101381.13
2023-11-13T10:09:42.554Z,101379.38
2023-11-13T10:12:11.953Z,101387.19
2023-11-13T10:14:40.668Z,101389.00
2023-11-13T10:17:10.313Z,101399.44
2023-11-13T10:19:39.252Z,101384.63
2023-11-13T10:22:17.472Z,101396.84
2023-11-13T10:25:00.250Z,101395.13
2023-11-13T10:27:31.813Z,101396.00
2023-11-13T10:30:08.251Z,101399.47
2023-11-13T10:32:38.119Z,101397.78
2023-11-13T10:35:11.134Z,101411.69
2023-11-13T10:37:40.123Z,101402.09
2023-11-13T10:40:13.333Z,101380.38
2023-11-13T10:42:51.462Z,101403.84
2023-11-13T10:45:20.439Z,101419.56
2023-11-13T10:47:51.841Z,101412.59
2023-11-13T10:50:25.667Z,101375.25
2023-11-13T10:52:57.693Z,101418.75
2023-11-13T10:55:28.039Z,101414.44
2023-11-13T10:57:57.435Z,101427.50
2023-11-13T11:00:26.575Z,101420.59
2023-11-13T11:02:56.806Z,101435.38
2023-11-13T11:05:27.876Z,101438.84
2023-11-13T11:07:57.688Z,101411.06
2023-11-13T11:10:28.899Z,101437.16
2023-11-13T11:13:08.738Z,101447.63
2023-11-13T11:15:56.236Z,101451.13
2023-11-13T11:19:00.189Z,101458.09
2023-11-13T11:21:55.592Z,101454.63
2023-11-13T11:24:51.373Z,101451.16
2023-11-13T11:27:43.048Z,101453.81
2023-11-13T11:30:20.431Z,101459.03
2023-11-13T11:33:02.590Z,101472.13
2023-11-13T11:35:39.075Z,101457.31
2023-11-13T11:38:22.863Z,101478.22
2023-11-13T11:40:52.557Z,101459.94
2023-11-13T11:43:26.359Z,101463.41
2023-11-13T11:45:55.671Z,101457.31
2023-11-13T11:48:26.059Z,101473.88
2023-11-13T11:50:59.030Z,101475.63
2023-11-13T11:53:31.753Z,101462.59
2023-11-13T11:56:00.618Z,101478.25
2023-11-13T11:58:36.485Z,101444.31
2023-11-13T12:01:07.138Z,101473.91
2023-11-13T12:03:36.325Z,101480.84
2023-11-13T12:06:06.071Z,101476.56
2023-11-13T12:08:37.013Z,101454.78
2023-11-13T12:11:06.725Z,101484.38
2023-11-13T12:13:35.249Z,101473.06
2023-11-13T12:16:05.051Z,101457.44
2023-11-13T12:18:34.212Z,101480.06
2023-11-13T12:21:06.424Z,101483.56
2023-11-13T12:23:35.105Z,101470.50
2023-11-13T12:26:05.553Z,101494.91
2023-11-13T12:28:34.836Z,101490.53
2023-11-13T12:31:17.943Z,101498.41
2023-11-13T12:33:48.119Z,101509.72
2023-11-13T12:36:20.437Z,101497.53
2023-11-13T12:38:49.286Z,101494.91
2023-11-13T12:41:20.273Z,101515.84
2023-11-13T12:43:50.000Z,101508.00
2023-11-13T12:46:25.734Z,101515.00
2023-11-13T12:49:01.089Z,101510.63
2023-11-13T12:51:31.270Z,101505.41
2023-11-13T12:54:01.233Z,101508.88
2023-11-13T12:56:33.306Z,101516.72
2023-11-13T12:59:02.054Z,101521.09
2023-11-13T13:01:33.281Z,101520.22
2023-11-13T13:04:04.692Z,101521.91
2023-11-13T13:06:44.683Z,101508.00
2023-11-13T13:09:15.336Z,101507.13
2023-11-13T13:11:47.074Z,101510.59
2023-11-13T13:14:21.023Z,101526.31
2023-11-13T13:16:57.096Z,101516.72
2023-11-13T13:19:27.484Z,101510.63
2023-11-13T13:21:56.475Z,101530.66
2023-11-13T13:24:27.911Z,101516.72
2023-11-13T13:26:59.365Z,101519.34
2023-11-13T13:29:28.366Z,101519.31
2023-11-13T13:31:57.647Z,101508.84
2023-11-13T13:34:26.799Z,101509.72
2023-11-13T13:36:56.423Z,101528.91
2023-11-13T13:39:24.979Z,101512.34
2023-11-13T13:41:53.800Z,101523.69
2023-11-13T13:44:22.345Z,101533.28
2023-11-13T13:46:51.296Z,101528.91
2023-11-13T13:49:21.998Z,101539.41
2023-11-13T13:51:50.815Z,101506.31
2023-11-13T13:54:20.796Z,101543.75
2023-11-13T13:56:49.630Z,101542.88
2023-11-13T13:59:22.070Z,101549.00
2023-11-13T14:01:50.979Z,101542.94
2023-11-13T14:04:19.999Z,101555.97
2023-11-13T14:06:48.649Z,101563.84
2023-11-13T14:09:18.748Z,101562.09
2023-11-13T14:11:47.606Z,101534.22
2023-11-13T14:14:17.535Z,101558.63
2023-11-13T14:16:51.845Z,101582.16
2023-11-13T14:19:21.572Z,101571.72
2023-11-13T14:21:50.675Z,101581.31
2023-11-13T14:24:22.099Z,101582.16
2023-11-13T14:26:51.038Z,101575.19
2023-11-13T14:29:19.528Z,101586.56
2023-11-13T14:31:49.343Z,101593.53
2023-11-13T14:34:20.178Z,101523.81
2023-11-13T14:36:51.678Z,101583.91
2023-11-13T14:39:22.716Z,101569.13
2023-11-13T14:41:51.561Z,101570.00
2023-11-13T14:44:20.146Z,101584.78
2023-11-13T14:46:49.154Z,101586.56
2023-11-13T14:49:18.110Z,101595.25
2023-11-13T14:51:47.487Z,101597.88
2023-11-13T14:54:16.005Z,101595.25
2023-11-13T14:56:44.584Z,101597.03
2023-11-13T14:59:14.928Z,101606.63
2023-11-13T15:01:43.743Z,101603.97
2023-11-13T15:04:13.684Z,101605.75
2023-11-13T15:06:42.507Z,101595.25
2023-11-13T15:09:11.386Z,101610.94
2023-11-13T15:11:40.666Z,101607.50
2023-11-13T15:14:09.477Z,101615.34
2023-11-13T15:16:39.154Z,101609.22
2023-11-13T15:19:08.131Z,101620.56
2023-11-13T15:21:36.871Z,101626.69
2023-11-13T15:24:06.305Z,101618.81
2023-11-13T15:26:35.160Z,101626.69
2023-11-13T15:29:03.985Z,101637.13
2023-11-13T15:31:32.595Z,101631.03
2023-11-13T15:34:03.097Z,101634.50
2023-11-13T15:36:31.985Z,101635.41
2023-11-13T15:39:04.306Z,101637.13
2023-11-13T15:41:35.196Z,101634.53
2023-11-13T15:44:09.391Z,101652.84
2023-11-13T15:46:38.089Z,101596.16
2023-11-13T15:49:07.025Z,101631.06
2023-11-13T15:51:35.523Z,101626.69
2023-11-13T15:54:04.702Z,101638.88
2023-11-13T15:56:33.298Z,101637.16
2023-11-13T15:59:03.775Z,101634.53
2023-11-13T16:01:32.267Z,101646.72
2023-11-13T16:04:04.138Z,101652.81
2023-11-13T16:06:33.831Z,101610.97
2023-11-13T16:09:05.063Z,101643.25
2023-11-13T16:11:34.904Z,101651.09
2023-11-13T16:14:03.944Z,101661.56
2023-11-13T16:16:32.848Z,101625.81
2023-11-13T16:19:01.457Z,101653.72
2023-11-13T16:21:30.294Z,101663.28
2023-11-13T16:23:59.412Z,101652.81
2023-11-13T16:26:29.265Z,101661.56
2023-11-13T16:28:58.317Z,101637.13
2023-11-13T16:31:27.247Z,101658.97
2023-11-13T16:33:56.199Z,101649.34
2023-11-13T16:36:24.792Z,101661.56
2023-11-13T16:38:53.869Z,101687.72
2023-11-13T16:41:25.920Z,101681.66
2023-11-13T16:43:54.525Z,101682.50
2023-11-13T16:46:23.167Z,101685.97
2023-11-13T16:48:52.398Z,101679.88
2023-11-13T16:51:21.224Z,101666.81
2023-11-13T16:53:50.045Z,101676.38
2023-11-13T16:56:21.481Z,101665.06
2023-11-13T16:58:53.958Z,101680.75
2023-11-13T17:01:23.716Z,101676.41
2023-11-13T17:03:52.242Z,101679.00
2023-11-13T17:06:20.937Z,101672.03
2023-11-13T17:08:54.521Z,101693.81
2023-11-13T17:11:26.188Z,101679.00
2023-11-13T17:13:57.690Z,101693.84
2023-11-13T17:16:28.267Z,101691.22
2023-11-13T17:18:56.816Z,101682.50
2023-11-13T17:21:27.710Z,101665.03
2023-11-13T17:23:56.690Z,101686.00
2023-11-13T17:26:25.748Z,101701.69
2023-11-13T17:28:54.356Z,101628.41
2023-11-13T17:31:25.417Z,101693.84
2023-11-13T17:33:54.348Z,101685.09
2023-11-13T17:36:23.189Z,101687.72
2023-11-13T17:38:52.005Z,101699.06
2023-11-13T17:41:20.657Z,101698.19
2023-11-13T17:43:49.084Z,101699.94
2023-11-13T17:46:17.905Z,101688.56
2023-11-13T17:48:46.818Z,101706.91
2023-11-13T17:51:18.502Z,101694.69
2023-11-13T17:53:47.441Z,101705.19
2023-11-13T17:56:16.258Z,101698.19
2023-11-13T17:58:45.281Z,101687.72
2023-11-13T18:01:14.431Z,101692.97
2023-11-13T18:03:45.976Z,101696.47
2023-11-13T18:06:17.027Z,101700.78
2023-11-13T18:08:45.971Z,101710.41
2023-11-13T18:11:14.978Z,101712.16
2023-11-13T18:13:44.990Z,101679.88
2023-11-13T18:16:14.696Z,101717.38
2023-11-13T18:18:44.554Z,101716.50
2023-11-13T18:21:13.941Z,101719.13
2023-11-13T18:23:43.229Z,101699.06
2023-11-13T18:26:14.926Z,101705.16
2023-11-13T18:28:45.901Z,101709.53
2023-11-13T18:31:15.126Z,101709.50
2023-11-13T18:33:44.323Z,101705.19
2023-11-13T18:36:14.707Z,101672.03
2023-11-13T18:38:44.219Z,101714.78
2023-11-13T18:41:14.073Z,101702.53
2023-11-13T18:43:42.629Z,101718.22
2023-11-13T18:46:11.548Z,101701.69
2023-11-13T18:48:42.312Z,101707.78
2023-11-13T18:51:12.567Z,101704.28
2023-11-13T18:53:42.797Z,101713.91
2023-11-13T18:56:15.512Z,101707.78
2023-11-13T18:58:45.101Z,101690.34
2023-11-13T19:01:17.582Z,101697.31
2023-11-13T19:03:47.493Z,101695.53
2023-11-13T19:06:19.559Z,101712.13
2023-11-13T19:08:49.059Z,101700.75
2023-11-13T19:11:24.066Z,101704.25
2023-11-13T19:13:54.826Z,101692.03
2023-11-13T19:16:23.993Z,101693.78
2023-11-13T19:18:53.225Z,101692.91
2023-11-13T19:21:27.341Z,101698.13
2023-11-13T19:23:59.450Z,101696.38
2023-11-13T19:26:28.703Z,101692.91
2023-11-13T19:28:59.151Z,101698.13
2023-11-13T19:31:27.858Z,101696.38
2023-11-13T19:33:56.620Z,101704.25
2023-11-13T19:36:25.499Z,101687.69
2023-11-13T19:38:53.877Z,101701.63
2023-11-13T19:41:23.153Z,101695.53
2023-11-13T19:43:51.511Z,101663.25
2023-11-13T19:46:20.456Z,101695.50
2023-11-13T19:48:50.606Z,101688.53
2023-11-13T19:51:19.288Z,101687.69
2023-11-13T19:53:47.845Z,101686.81
2023-11-13T19:56:16.796Z,101689.41
2023-11-13T19:58:45.401Z,101651.94
2023-11-13T20:01:14.144Z,101667.63
2023-11-13T20:03:42.919Z,101669.38
2023-11-13T20:06:11.464Z,101683.31
2023-11-13T20:08:40.108Z,101690.31
2023-11-13T20:11:08.416Z,101687.69
2023-11-13T20:13:37.174Z,101697.28
2023-11-13T20:16:07.168Z,101693.78
2023-11-13T20:18:37.535Z,101699.91
2023-11-13T20:21:07.141Z,101697.28
2023-11-13T20:23:39.276Z,101686.81
2023-11-13T20:26:09.546Z,101693.78
2023-11-13T20:28:38.773Z,101693.78
2023-11-13T20:31:07.098Z,101696.41
2023-11-13T20:33:37.979Z,101710.38
2023-11-13T20:36:07.388Z,101690.31
2023-11-13T20:38:35.988Z,101701.66
2023-11-13T20:41:04.937Z,101697.28
2023-11-13T20:43:33.933Z,101689.41
2023-11-13T20:46:04.822Z,101701.63
2023-11-13T20:48:33.523Z,101695.53
2023-11-13T20:51:02.733Z,101667.59
2023-11-13T20:53:32.376Z,101710.38
2023-11-13T20:56:01.996Z,101691.16
2023-11-13T20:58:30.997Z,101692.91
2023-11-13T21:01:02.737Z,101704.25
2023-11-13T21:03:31.898Z,101671.94
2023-11-13T21:06:07.477Z,101697.25
2023-11-13T21:08:36.519Z,101695.53
2023-11-13T21:11:06.505Z,101680.66
2023-11-13T21:13:35.412Z,101690.28
2023-11-13T21:16:05.047Z,101709.44
2023-11-13T21:18:34.383Z,101709.44
2023-11-13T21:21:03.219Z,101692.00
2023-11-13T21:23:32.061Z,101713.81
2023-11-13T21:26:02.568Z,101700.72
2023-11-13T21:28:32.680Z,101699.81
2023-11-13T21:31:02.300Z,101693.72
2023-11-13T21:33:33.484Z,101709.41
2023-11-13T21:36:02.051Z,101718.13
2023-11-13T21:38:30.763Z,101723.38
2023-11-13T21:40:59.705Z,101720.75
2023-11-13T21:43:29.903Z,101712.88
2023-11-13T21:45:58.700Z,101703.28
2023-11-13T21:48:27.369Z,101712.03
2023-11-13T21:50:56.181Z,101708.53
2023-11-13T21:53:26.272Z,101703.31
2023-11-13T21:55:55.692Z,101703.28
2023-11-13T21:58:24.519Z,101672.72
2023-11-13T22:00:53.037Z,101705.88
2023-11-13T22:03:21.539Z,101705.00
2023-11-13T22:05:50.180Z,101711.09
2023-11-13T22:08:19.583Z,101721.56
2023-11-13T22:10:48.937Z,101713.72
2023-11-13T22:13:17.614Z,101720.72
2023-11-13T22:15:46.258Z,101715.50
2023-11-13T22:18:15.720Z,101723.34
2023-11-13T22:20:44.608Z,101718.09
2023-11-13T22:23:14.901Z,101715.50
2023-11-13T22:25:43.463Z,101727.72
2023-11-13T22:28:12.491Z,101719.00
2023-11-13T22:30:41.734Z,101713.75
2023-11-13T22:33:12.689Z,101711.16
2023-11-13T22:35:41.677Z,101702.44
2023-11-13T22:38:11.178Z,101714.66
2023-11-13T22:40:41.113Z,101708.56
2023-11-13T22:43:09.712Z,101712.06
2023-11-13T22:45:38.444Z,101695.47
2023-11-13T22:48:07.286Z,101706.81
2023-11-13T22:50:35.570Z,101685.88
2023-11-13T22:53:04.547Z,101716.41
2023-11-13T22:55:33.096Z,101698.06
2023-11-13T22:58:02.003Z,101726.03
2023-11-13T23:00:38.846Z,101722.53
2023-11-13T23:03:12.552Z,101725.13
2023-11-13T23:05:42.055Z,101721.63
2023-11-13T23:08:10.910Z,101718.16
2023-11-13T23:10:39.808Z,101724.28
2023-11-13T23:13:08.626Z,101722.56
2023-11-13T23:15:37.766Z,101728.66
2023-11-13T23:18:07.321Z,101710.31
2023-11-13T23:20:36.854Z,101692.84
2023-11-13T23:23:05.673Z,101708.59
2023-11-13T23:25:34.605Z,101717.31
2023-11-13T23:28:04.065Z,101711.22
2023-11-13T23:30:32.953Z,101709.47
2023-11-13T23:33:01.944Z,101719.94
2023-11-13T23:35:30.815Z,101719.09
2023-11-13T23:38:01.612Z,101702.50
2023-11-13T23:40:30.440Z,101724.31
2023-11-13T23:42:59.633Z,101705.13
2023-11-13T23:45:28.617Z,101705.13
2023-11-13T23:47:57.440Z,101706.00
2023-11-13T23:50:26.085Z,101709.50
2023-11-13T23:52:54.882Z,101708.63
2023-11-13T23:55:23.621Z,101679.84
2023-11-13T23:57:52.554Z,101699.91
